Time;durP1;ratioP1;P1;durP2;ratioP2;P2;SDS_P1;SDS_P2;PMS_P1;PMS_P2;Temp;Humidity;BMP_temperature;BMP_pressure;BME280_temperature;BME280_humidity;BME280_pressure;Samples;Min_cycle;Max_cycle;Signal;HPM_P1;HPM_P2
2021/03/10 00:01:02;;;;;;;34.45;21.33;;;8.50;99.90;;;8.68;76.08;101722.53;4936372;29;20039;-71
2021/03/10 00:03:30;;;;;;;34.72;22.67;;;8.40;99.90;;;8.62;76.23;101716.25;4936391;29;20056;-71
2021/03/10 00:05:57;;;;;;;36.60;22.42;;;8.30;99.90;;;8.54;76.41;101718.75;4936413;29;20545;-70
2021/03/10 00:08:25;;;;;;;35.55;22.00;;;8.20;99.90;;;8.34;76.72;101685.00;4936450;29;20051;-70
2021/03/10 00:10:52;;;;;;;33.33;22.48;;;8.10;99.90;;;8.38;76.95;101711.44;4936212;29;20051;-70
2021/03/10 00:13:19;;;;;;;39.85;24.40;;;8.10;99.90;;;8.30;77.22;101713.06;4936167;29;20075;-70
2021/03/10 00:15:47;;;;;;;41.40;25.67;;;8.00;99.90;;;8.23;78.01;101712.03;4919223;29;20118;-70
2021/03/10 00:18:15;;;;;;;38.88;25.58;;;7.90;99.90;;;8.10;79.04;101698.59;4936015;29;20050;-70
2021/03/10 00:20:43;;;;;;;37.45;25.58;;;7.80;99.90;;;8.06;79.43;101696.75;4918937;29;20091;-70
2021/03/10 00:23:10;;;;;;;43.30;29.77;;;7.80;99.90;;;8.02;79.85;101694.91;4936032;29;20517;-70
2021/03/10 00:25:37;;;;;;;50.70;31.83;;;7.80;99.90;;;7.93;80.68;101695.66;4936256;29;20131;-70
2021/03/10 00:28:05;;;;;;;53.30;32.00;;;7.70;99.90;;;7.82;81.27;101697.16;4936116;29;20142;-70
2021/03/10 00:30:33;;;;;;;52.30;33.35;;;7.70;99.90;;;7.76;81.60;101704.06;4936177;29;20493;-69
2021/03/10 00:33:01;;;;;;;64.35;39.40;;;7.60;99.90;;;7.77;82.02;101697.94;4918747;29;20061;-70
2021/03/10 00:35:30;;;;;;;59.88;34.85;;;7.60;99.90;;;7.77;82.35;101698.81;4935748;29;20122;-70
2021/03/10 00:37:59;;;;;;;63.92;38.42;;;7.60;99.90;;;7.72;82.56;101695.22;4918969;29;20079;-70
2021/03/10 00:40:27;;;;;;;68.72;40.63;;;7.60;99.90;;;7.68;83.62;101701.28;4935919;29;20044;-70
2021/03/10 00:42:54;;;;;;;70.30;42.63;;;7.60;99.90;;;7.70;83.51;101707.47;4935737;29;20558;-70
2021/03/10 00:45:22;;;;;;;80.05;45.13;;;7.60;99.90;;;7.73;83.94;101698.72;4935716;29;20044;-70
2021/03/10 00:47:49;;;;;;;64.65;38.50;;;7.60;99.90;;;7.70;84.05;101703.94;4935934;29;20048;-70
2021/03/10 00:50:20;;;;;;;69.45;39.60;;;7.60;99.90;;;7.83;83.31;101713.84;4935830;29;20126;-70
2021/03/10 00:52:48;;;;;;;61.75;35.55;;;7.70;99.90;;;7.83;83.13;101713.84;4935811;29;20048;-71
2021/03/10 00:55:16;;;;;;;58.75;34.97;;;7.70;99.90;;;7.76;82.95;101731.25;4935553;29;20569;-70
2021/03/10 00:58:17;;;;;;;62.78;37.47;;;7.70;99.90;;;7.75;82.71;101721.59;4935413;29;20408;-70
2021/03/10 01:00:45;;;;;;;62.10;36.20;;;7.70;99.90;;;7.79;82.36;101719.91;4935712;29;20147;-70
2021/03/10 01:03:12;;;;;;;64.53;38.75;;;7.80;99.90;;;7.82;82.09;101717.38;4918754;29;20058;-70
2021/03/10 01:05:48;;;;;;;65.28;39.28;;;7.70;99.90;;;7.83;82.25;101724.38;4935649;29;20044;-70
2021/03/10 01:08:16;;;;;;;56.58;35.25;;;7.80;99.90;;;7.88;81.97;101721.00;4935213;29;20095;-70
2021/03/10 01:10:45;;;;;;;60.58;36.22;;;7.80;99.90;;;8.04;81.44;101724.81;4935332;29;20173;-70
2021/03/10 01:13:13;;;;;;;54.70;34.43;;;7.80;99.90;;;8.14;81.21;101722.41;4936871;29;20067;-70
2021/03/10 01:15:41;;;;;;;54.08;33.63;;;7.90;99.90;;;8.22;80.40;101714.63;4924773;29;20299;-70
2021/03/10 01:18:08;;;;;;;52.20;31.63;;;8.00;99.90;;;8.25;79.83;101719.09;4941512;29;20079;-70
2021/03/10 01:20:36;;;;;;;47.30;29.77;;;8.10;99.90;;;8.25;78.90;101719.09;4941736;29;20051;-70
2021/03/10 01:23:04;;;;;;;48.33;30.33;;;8.10;99.90;;;8.16;78.94;101707.50;4941638;29;20043;-70
2021/03/10 01:25:31;;;;;;;49.95;29.80;;;8.00;99.90;;;8.11;78.57;101711.78;4941654;29;20142;-70
2021/03/10 01:27:59;;;;;;;51.90;31.38;;;8.00;99.90;;;8.11;78.92;101710.88;4941873;29;20079;-70
2021/03/10 01:30:26;;;;;;;55.35;34.03;;;7.90;99.90;;;8.14;78.65;101724.13;4941576;29;20047;-70
2021/03/10 01:32:56;;;;;;;56.55;36.03;;;7.90;99.90;;;8.16;79.35;101746.13;4941565;29;20047;-70
2021/03/10 01:35:23;;;;;;;58.45;35.90;;;7.90;99.90;;;8.23;79.32;101720.81;4941863;29;20052;-70
2021/03/10 01:37:51;;;;;;;64.32;40.00;;;8.00;99.90;;;8.23;79.31;101712.03;4941410;29;20529;-70
2021/03/10 01:40:20;;;;;;;68.15;42.35;;;8.00;99.90;;;8.21;80.11;101710.22;4941767;29;20055;-70
2021/03/10 01:42:48;;;;;;;72.18;42.45;;;8.00;99.90;;;8.17;80.08;101711.00;4941418;29;20560;-70
2021/03/10 01:45:15;;;;;;;74.47;43.90;;;8.00;99.90;;;8.16;80.21;101698.72;4941472;29;20414;-70
2021/03/10 01:47:46;;;;;;;70.90;45.50;;;8.00;99.90;;;8.19;80.54;101693.47;4941526;29;20047;-70
2021/03/10 01:50:16;;;;;;;;;;;8.00;99.90;;;8.04;80.59;101683.56;4941939;29;20043;-70
2021/03/10 01:52:44;;;;;;;83.30;47.30;;;7.90;99.90;;;8.06;81.21;101692.38;4941387;29;19923;-70
2021/03/10 01:55:13;;;;;;;77.05;47.03;;;7.90;99.90;;;8.03;80.95;101691.44;4941420;29;20103;-70
2021/03/10 01:57:41;;;;;;;79.70;49.00;;;7.90;99.90;;;8.01;81.36;101675.56;4941582;29;20095;-71
2021/03/10 02:00:10;;;;;;;84.13;50.22;;;7.80;99.90;;;8.00;81.42;101673.81;4941541;29;20119;-70
2021/03/10 02:02:42;;;;;;;86.05;49.33;;;7.80;99.90;;;8.04;81.56;101677.38;4941356;29;20055;-71
2021/03/10 02:05:13;;;;;;;82.97;50.38;;;7.90;99.90;;;8.07;81.78;101672.19;4941178;29;20043;-70
2021/03/10 02:07:56;;;;;;;80.97;51.08;;;7.80;99.90;;;8.05;81.73;101668.66;4941410;29;20051;-70
2021/03/10 02:10:43;;;;;;;84.13;51.83;;;7.90;99.90;;;8.05;81.78;101676.56;4924183;29;20087;-70
2021/03/10 02:13:17;;;;;;;85.22;51.88;;;7.80;99.90;;;8.01;82.37;101672.09;4924411;29;20544;-70
2021/03/10 02:15:56;;;;;;;82.72;51.38;;;7.80;99.90;;;8.11;82.20;101663.47;4941442;29;20553;-71
2021/03/10 02:18:30;;;;;;;81.25;52.25;;;7.80;99.90;;;8.19;81.73;101662.75;4941255;29;20066;-70
2021/03/10 02:21:01;;;;;;;81.13;51.33;;;7.90;99.90;;;8.12;81.68;101666.16;4941296;29;20077;-70
2021/03/10 02:24:09;;;;;;;79.90;51.55;;;7.90;99.90;;;8.18;81.62;101663.63;4941381;29;20079;-70
2021/03/10 02:27:15;;;;;;;78.43;50.65;;;7.90;99.90;;;8.23;81.83;101652.28;4937233;29;20048;-70
2021/03/10 02:29:44;;;;;;;73.65;48.13;;;8.00;99.90;;;8.23;81.50;101655.78;4936636;29;20067;-70
2021/03/10 02:32:13;;;;;;;78.68;51.45;;;8.00;99.90;;;8.19;81.30;101657.47;4938045;29;20501;-71
2021/03/10 02:34:41;;;;;;;78.68;51.30;;;8.00;99.90;;;8.13;81.97;101646.81;4938033;29;20052;-70
2021/03/10 02:37:11;;;;;;;84.38;52.10;;;7.90;99.90;;;8.07;81.72;101646.72;4938115;29;20051;-70
2021/03/10 02:39:38;;;;;;;77.03;50.40;;;7.90;99.90;;;8.08;81.33;101648.50;4938073;29;20048;-70
2021/03/10 02:42:06;;;;;;;82.57;52.83;;;7.90;99.90;;;8.08;81.58;101645.88;4938014;29;20560;-70
2021/03/10 02:44:35;;;;;;;81.57;51.78;;;7.90;99.90;;;8.02;81.76;101640.50;4937748;29;20453;-70
2021/03/10 02:47:04;;;;;;;84.82;54.05;;;7.90;99.90;;;7.94;81.87;101634.19;4937855;29;20134;-71
2021/03/10 02:49:33;;;;;;;83.53;52.17;;;7.70;99.90;;;7.94;82.09;101639.47;4937714;29;20044;-70
2021/03/10 02:52:02;;;;;;;80.03;52.58;;;7.70;99.90;;;7.91;82.13;101635.88;4937856;29;20043;-71
2021/03/10 02:54:31;;;;;;;82.88;53.40;;;7.70;99.90;;;7.84;82.19;101631.38;4937707;29;20057;-70
2021/03/10 02:56:59;;;;;;;85.82;51.90;;;7.70;99.90;;;7.75;82.10;101633.81;4937910;29;20091;-70
2021/03/10 02:59:27;;;;;;;81.78;52.13;;;7.70;99.90;;;7.70;82.34;101604.78;4920500;29;20063;-70
2021/03/10 03:01:55;;;;;;;75.63;49.97;;;7.60;99.90;;;7.91;82.17;101623.63;4937731;29;20067;-71
2021/03/10 03:04:23;;;;;;;78.55;50.10;;;7.70;99.90;;;7.93;81.88;101614.00;4937601;29;20067;-70
2021/03/10 03:06:50;;;;;;;80.13;49.17;;;7.70;99.90;;;7.99;81.42;101615.84;4920347;29;20048;-70
2021/03/10 03:09:18;;;;;;;75.18;48.33;;;7.70;99.90;;;7.97;81.31;101607.91;4937370;29;20103;-71
2021/03/10 03:11:45;;;;;;;79.53;48.33;;;7.80;99.90;;;8.05;81.13;101605.41;4937419;29;20497;-71
2021/03/10 03:14:13;;;;;;;76.50;48.30;;;7.80;99.90;;;8.05;81.18;101602.78;4937340;29;20090;-70
2021/03/10 03:16:43;;;;;;;75.00;49.67;;;7.80;99.90;;;8.10;80.73;101609.91;4937248;29;20052;-70
2021/03/10 03:19:11;;;;;;;72.45;47.08;;;7.80;99.90;;;8.14;80.49;101606.47;4937419;29;20051;-70
2021/03/10 03:21:42;;;;;;;71.47;46.13;;;7.80;99.90;;;8.20;80.75;101608.31;4937179;29;20084;-70
2021/03/10 03:24:10;;;;;;;67.85;46.53;;;7.90;99.90;;;7.98;80.55;101561.38;4920077;29;20631;-70
2021/03/10 03:26:38;;;;;;;70.28;48.03;;;7.90;99.90;;;8.27;80.54;101604.03;4920025;29;20048;-71
2021/03/10 03:29:06;;;;;;;75.45;46.75;;;8.00;99.90;;;8.28;80.14;101597.94;4937215;29;20095;-71
2021/03/10 03:31:35;;;;;;;71.22;47.70;;;8.00;99.90;;;8.27;79.84;101604.94;4937488;29;20047;-70
2021/03/10 03:34:04;;;;;;;70.85;45.63;;;8.00;99.90;;;8.31;79.92;101611.16;4936875;29;20044;-71
2021/03/10 03:36:33;;;;;;;66.38;43.47;;;8.00;99.90;;;8.30;79.76;101601.47;4936574;29;20422;-70
2021/03/10 03:39:02;;;;;;;71.15;46.85;;;8.00;99.90;;;8.29;79.53;101597.06;4919715;29;20063;-70
2021/03/10 03:41:29;;;;;;;66.97;43.22;;;8.00;99.90;;;8.31;79.69;101611.16;4936894;29;20180;-69
2021/03/10 03:44:00;;;;;;;65.78;43.83;;;8.00;99.90;;;8.41;79.43;101615.72;4936773;29;20115;-70
2021/03/10 03:46:27;;;;;;;70.55;43.65;;;8.10;99.90;;;8.38;78.85;101615.69;4936979;29;20122;-70
2021/03/10 03:48:58;;;;;;;72.35;46.38;;;8.10;99.90;;;8.43;78.99;101604.34;4936621;29;20050;-70
2021/03/10 03:51:28;;;;;;;68.03;45.15;;;8.20;99.90;;;8.43;78.54;101592.91;4936562;29;20044;-70
2021/03/10 03:53:58;;;;;;;67.10;43.88;;;8.20;99.90;;;8.46;78.81;101603.50;4936587;29;20063;-70
2021/03/10 03:56:26;;;;;;;70.45;43.30;;;8.20;99.90;;;8.17;78.49;101543.25;4936782;29;20048;-70
2021/03/10 03:58:54;;;;;;;64.60;43.92;;;8.20;99.90;;;8.52;78.13;101604.47;4936475;29;20150;-70
2021/03/10 04:01:22;;;;;;;67.68;43.30;;;8.30;99.90;;;8.56;77.95;101600.13;4936920;29;20095;-70
2021/03/10 04:03:50;;;;;;;62.20;42.00;;;8.30;99.90;;;8.47;77.98;101600.88;4936295;29;20138;-70
2021/03/10 04:06:18;;;;;;;62.97;41.90;;;8.20;99.90;;;8.42;77.77;101585.88;4936246;29;20450;-70
2021/03/10 04:08:46;;;;;;;61.45;41.38;;;8.20;99.90;;;8.51;77.75;101591.28;4936312;29;20502;-69
2021/03/10 04:11:17;;;;;;;57.20;40.22;;;8.20;99.90;;;8.52;77.98;101587.75;4936289;29;20043;-70
2021/03/10 04:13:45;;;;;;;60.58;41.53;;;8.20;99.90;;;8.47;77.73;101586.81;4936784;29;20056;-70
2021/03/10 04:16:12;;;;;;;61.13;39.28;;;8.20;99.90;;;8.46;77.67;101585.06;4936149;29;20048;-70
2021/03/10 04:18:40;;;;;;;57.63;39.78;;;8.20;99.90;;;8.43;77.88;101572.69;4935872;29;20058;-71
2021/03/10 04:21:08;;;;;;;65.45;40.70;;;8.10;99.90;;;8.43;77.83;101571.81;4936148;29;20075;-70
2021/03/10 04:23:36;;;;;;;60.35;39.35;;;8.10;99.90;;;8.39;77.99;101567.34;4936014;29;20131;-70
2021/03/10 04:26:03;;;;;;;61.92;39.25;;;8.10;99.90;;;8.36;77.94;101564.69;4935938;29;20087;-70
2021/03/10 04:28:31;;;;;;;55.75;38.70;;;8.10;99.90;;;8.40;77.84;101562.09;4935968;29;20070;-70
2021/03/10 04:30:59;;;;;;;59.33;39.05;;;8.10;99.90;;;8.43;77.78;101551.63;4935832;29;20052;-70
2021/03/10 04:33:26;;;;;;;57.75;41.45;;;8.10;99.90;;;8.39;78.01;101548.91;4936109;29;20051;-70
2021/03/10 04:35:54;;;;;;;61.97;39.60;;;8.10;99.90;;;8.34;77.93;101551.50;4935957;29;20051;-70
2021/03/10 04:38:29;;;;;;;52.80;38.15;;;8.10;99.90;;;8.21;77.63;101516.09;4935964;29;20150;-71
2021/03/10 04:40:56;;;;;;;63.55;37.75;;;8.10;99.90;;;8.38;77.44;101547.13;4935858;29;20051;-70
2021/03/10 04:43:24;;;;;;;56.75;40.15;;;8.10;99.90;;;8.33;77.80;101543.53;4936021;29;20083;-69
2021/03/10 04:45:52;;;;;;;58.40;39.85;;;8.10;99.90;;;8.33;78.02;101549.69;4935824;29;20058;-70
2021/03/10 04:48:21;;;;;;;60.75;38.90;;;8.10;99.90;;;8.37;77.85;101558.53;4935019;29;20639;-70
2021/03/10 04:50:49;;;;;;;58.30;39.20;;;8.10;99.90;;;8.36;77.73;101555.03;4935750;29;20086;-70
2021/03/10 04:53:17;;;;;;;58.38;39.20;;;8.10;99.90;;;8.06;78.50;101529.03;4935601;29;20565;-70
2021/03/10 04:55:44;;;;;;;59.33;39.92;;;8.00;99.90;;;8.19;78.53;101549.44;4935568;29;20053;-70
2021/03/10 04:58:12;;;;;;;60.63;39.72;;;8.00;99.90;;;8.21;78.60;101549.47;4935856;29;20051;-71
2021/03/10 05:00:39;;;;;;;60.80;38.17;;;8.00;99.90;;;8.10;78.68;101551.94;4935905;29;20051;-71
2021/03/10 05:03:06;;;;;;;57.55;39.45;;;8.00;99.90;;;8.07;78.67;101549.25;4935484;29;20043;-70
2021/03/10 05:05:35;;;;;;;68.05;40.35;;;7.90;99.90;;;7.98;78.98;101542.94;4935480;29;20134;-70
2021/03/10 05:08:02;;;;;;;61.22;40.95;;;7.80;99.90;;;8.03;79.08;101539.50;4935533;29;20039;-78
2021/03/10 05:10:30;;;;;;;63.70;41.00;;;7.80;99.90;;;8.02;79.12;101547.38;4935573;29;20043;-75
2021/03/10 05:12:57;;;;;;;60.13;42.22;;;7.80;99.90;;;7.97;79.32;101542.06;4935633;29;20087;-70
2021/03/10 05:15:24;;;;;;;69.72;40.03;;;7.70;99.90;;;8.01;79.65;101546.50;4935557;29;20413;-75
2021/03/10 05:17:53;;;;;;;66.50;41.72;;;7.80;99.90;;;7.92;79.56;101551.63;4935350;29;20043;-72
2021/03/10 05:20:20;;;;;;;60.78;38.85;;;7.70;99.90;;;8.04;79.38;101540.41;4935375;29;20155;-73
2021/03/10 05:22:48;;;;;;;64.80;41.33;;;7.70;99.90;;;8.01;79.53;101546.50;4935314;29;20056;-72
2021/03/10 05:25:16;;;;;;;62.53;39.13;;;7.70;99.90;;;8.00;79.37;101534.19;4935221;29;20039;-72
2021/03/10 05:27:43;;;;;;;61.08;38.65;;;7.80;99.90;;;8.05;79.30;101536.94;4935184;29;20089;-72
2021/03/10 05:30:12;;;;;;;60.55;40.90;;;7.80;99.90;;;8.02;79.34;101553.56;4935392;29;20056;-73
2021/03/10 05:32:40;;;;;;;62.70;40.10;;;7.80;99.90;;;8.05;79.66;101543.06;4935342;29;20074;-72
2021/03/10 05:35:09;;;;;;;62.42;41.08;;;7.80;99.90;;;7.94;79.61;101542.00;4918226;29;20429;-72
2021/03/10 05:37:38;;;;;;;;;;;7.70;99.90;;;7.87;79.74;101545.41;4935850;29;20054;-72
2021/03/10 05:40:08;;;;;;;65.72;40.30;;;7.70;99.90;;;7.73;79.91;101523.19;4935097;29;19923;-72
2021/03/10 05:42:41;;;;;;;62.83;40.00;;;7.70;99.90;;;7.86;79.98;101546.25;4935380;29;20046;-73
2021/03/10 05:45:10;;;;;;;62.85;39.80;;;7.60;99.90;;;7.82;80.33;101539.16;4935109;29;20051;-72
2021/03/10 05:47:38;;;;;;;61.87;39.57;;;7.60;99.90;;;7.85;79.97;101536.59;4935144;29;20044;-71
2021/03/10 05:50:09;;;;;;;60.57;40.43;;;7.70;99.90;;;7.88;80.18;101534.00;4917959;29;20299;-72
2021/03/10 05:52:39;;;;;;;63.95;39.53;;;7.70;99.90;;;8.00;79.94;101536.84;4935452;29;20130;-73
2021/03/10 05:55:09;;;;;;;59.45;39.42;;;7.80;99.90;;;8.06;79.55;101536.03;4935179;29;20044;-72
2021/03/10 05:57:37;;;;;;;60.25;39.70;;;7.80;99.90;;;8.06;79.57;101539.56;4917803;29;20056;-72
2021/03/10 06:00:10;;;;;;;61.45;38.70;;;7.80;99.90;;;8.05;79.64;101532.50;4936607;29;20134;-71
2021/03/10 06:02:38;;;;;;;59.20;38.58;;;7.80;99.90;;;8.10;79.06;101538.78;4938781;29;20055;-72
2021/03/10 06:05:17;;;;;;;59.85;38.03;;;7.80;99.90;;;8.20;79.03;101532.78;4938515;29;20043;-72
2021/03/10 06:07:45;;;;;;;61.30;39.08;;;7.90;99.90;;;8.16;78.91;101528.34;4938619;29;20048;-72
2021/03/10 06:10:14;;;;;;;54.85;37.83;;;7.90;99.90;;;8.10;78.81;101522.06;4921400;29;20477;-73
2021/03/10 06:12:43;;;;;;;63.38;37.35;;;7.90;99.90;;;8.05;79.09;101506.19;4938510;29;20126;-72
2021/03/10 06:15:13;;;;;;;57.50;37.80;;;7.90;99.90;;;8.16;79.01;101530.97;4938345;29;20110;-72
2021/03/10 06:17:43;;;;;;;59.20;39.25;;;7.90;99.90;;;8.10;78.68;101512.41;4938579;29;20047;-72
2021/03/10 06:20:23;;;;;;;63.28;37.78;;;7.90;99.90;;;8.21;78.84;101524.00;4921125;29;20064;-71
2021/03/10 06:22:51;;;;;;;60.30;38.83;;;8.00;99.90;;;8.19;78.59;101520.47;4921367;29;20833;-72
2021/03/10 06:25:20;;;;;;;69.45;38.75;;;7.90;99.90;;;7.96;78.90;101478.81;4938464;29;20279;-72
2021/03/10 06:27:55;;;;;;;61.20;40.30;;;7.90;99.90;;;7.94;79.18;101486.69;4937971;29;20093;-72
2021/03/10 06:30:35;;;;;;;66.03;39.08;;;7.90;99.90;;;8.04;79.73;101508.78;4938056;29;20473;-72
2021/03/10 06:33:04;;;;;;;65.70;39.40;;;7.90;99.90;;;7.93;79.75;101515.66;4938185;29;20059;-72
2021/03/10 06:35:33;;;;;;;65.60;38.80;;;7.80;99.90;;;7.98;79.97;101509.59;4921159;29;20055;-73
2021/03/10 06:38:13;;;;;;;65.47;41.88;;;7.70;99.90;;;8.04;80.16;101509.69;4937929;29;20039;-72
2021/03/10 06:40:53;;;;;;;63.88;40.15;;;7.70;99.90;;;7.96;80.14;101506.03;4921051;29;20080;-73
2021/03/10 06:43:22;;;;;;;64.82;40.38;;;7.80;99.90;;;7.76;80.29;101478.47;4937820;29;20047;-73
2021/03/10 06:45:49;;;;;;;64.00;41.95;;;7.70;99.90;;;7.83;80.51;101496.16;4936322;29;20044;-72
2021/03/10 06:48:19;;;;;;;64.43;42.67;;;7.70;99.90;;;7.78;80.93;101496.97;4937689;29;20090;-72
2021/03/10 06:50:47;;;;;;;69.80;43.08;;;7.60;99.90;;;7.74;81.35;101500.41;4937778;29;20051;-71
2021/03/10 06:53:15;;;;;;;66.80;43.47;;;7.60;99.90;;;7.76;81.62;101511.84;4920665;29;20043;-72
2021/03/10 06:55:44;;;;;;;70.33;44.63;;;7.60;99.90;;;7.73;81.76;101507.41;4937519;29;20048;-72
2021/03/10 06:58:23;;;;;;;73.05;44.22;;;7.60;99.90;;;7.69;82.20;101510.84;4937343;29;20047;-72
2021/03/10 07:01:00;;;;;;;70.57;44.67;;;7.60;99.90;;;7.78;81.69;101518.88;4937607;29;20251;-72
2021/03/10 07:03:29;;;;;;;66.97;42.00;;;7.60;99.90;;;7.83;81.74;101501.44;4937820;29;20402;-73
2021/03/10 07:05:59;;;;;;;65.93;42.70;;;7.60;99.90;;;7.87;81.88;101508.53;4937807;29;20498;-72
2021/03/10 07:08:27;;;;;;;69.28;44.90;;;7.60;99.90;;;7.92;81.82;101505.94;4937518;29;20071;-73
2021/03/10 07:10:55;;;;;;;71.38;43.35;;;7.60;99.90;;;7.90;81.41;101502.41;4936873;29;20058;-71
2021/03/10 07:13:24;;;;;;;69.22;43.83;;;7.70;99.90;;;7.96;81.45;101506.03;4937225;29;20253;-71
2021/03/10 07:15:52;;;;;;;75.07;43.78;;;7.70;99.90;;;7.98;81.15;101511.31;4937033;29;20078;-72
2021/03/10 07:18:21;;;;;;;66.97;43.22;;;7.70;99.90;;;7.90;81.55;101503.31;4937025;29;20047;-71
2021/03/10 07:20:49;;;;;;;68.32;42.70;;;7.70;99.90;;;7.87;81.42;101505.91;4937284;29;20040;-73
2021/03/10 07:23:19;;;;;;;69.30;43.35;;;7.70;99.90;;;7.83;81.73;101501.44;4937188;29;20472;-71
2021/03/10 07:25:47;;;;;;;69.72;44.45;;;7.70;99.90;;;7.79;82.36;101509.25;4920069;29;20462;-72
2021/03/10 07:28:18;;;;;;;69.27;43.47;;;7.60;99.90;;;7.80;82.13;101504.00;4937278;29;20083;-72
2021/03/10 07:30:48;;;;;;;71.47;44.60;;;7.60;99.90;;;7.86;82.18;101509.38;4937293;29;20051;-71
2021/03/10 07:33:18;;;;;;;75.20;45.40;;;7.60;99.90;;;7.84;82.51;101495.28;4937245;29;20052;-72
2021/03/10 07:35:51;;;;;;;71.57;43.60;;;7.60;99.90;;;7.81;82.59;101503.16;4936923;29;20055;-71
2021/03/10 07:38:20;;;;;;;68.97;42.95;;;7.70;99.90;;;7.86;82.25;101495.31;4919959;29;20051;-72
2021/03/10 07:40:57;;;;;;;66.43;42.38;;;7.70;99.90;;;7.88;82.47;101505.03;4936862;29;20044;-71
2021/03/10 07:43:39;;;;;;;74.68;44.97;;;7.70;99.90;;;7.82;82.64;101502.28;4936933;29;20099;-72
2021/03/10 07:46:20;;;;;;;74.35;43.22;;;7.60;99.90;;;7.76;82.71;101491.63;4936786;29;20425;-70
2021/03/10 07:48:48;;;;;;;72.88;44.00;;;7.60;99.90;;;7.79;82.47;101496.09;4936463;29;20402;-72
2021/03/10 07:51:32;;;;;;;69.78;44.75;;;7.70;99.90;;;7.76;82.57;101486.38;4936412;29;20083;-72
2021/03/10 07:54:01;;;;;;;73.18;44.55;;;7.70;99.90;;;7.82;82.75;101490.88;4936600;29;20043;-72
2021/03/10 07:56:31;;;;;;;68.37;45.20;;;7.70;99.90;;;7.79;82.65;101493.44;4936613;29;20056;-72
2021/03/10 07:59:09;;;;;;;77.38;46.00;;;7.70;99.90;;;7.90;82.60;101499.78;4936417;29;20044;-72
2021/03/10 08:01:38;;;;;;;69.43;43.67;;;7.70;99.90;;;7.82;82.27;101497.00;4919272;29;20416;-72
2021/03/10 08:04:11;;;;;;;74.85;44.67;;;7.70;99.90;;;7.86;82.34;101492.69;4936556;29;20040;-72
2021/03/10 08:06:46;;;;;;;69.10;43.58;;;7.70;99.90;;;7.87;82.58;101486.56;4936301;29;20099;-71
2021/03/10 08:09:18;;;;;;;76.00;44.78;;;7.70;99.90;;;7.90;82.30;101484.88;4919345;29;20060;-72
2021/03/10 08:11:46;;;;;;;67.32;42.35;;;7.70;99.90;;;7.97;82.22;101484.13;4936257;29;20051;-72
2021/03/10 08:14:17;;;;;;;65.23;42.80;;;7.80;99.90;;;7.90;82.30;101500.66;4936083;29;20055;-72
2021/03/10 08:16:48;;;;;;;69.90;42.60;;;7.70;99.90;;;7.88;82.71;101486.59;4936178;29;20043;-72
2021/03/10 08:19:21;;;;;;;73.00;44.70;;;7.80;99.90;;;7.83;82.50;101475.09;4918890;29;20097;-72
2021/03/10 08:21:52;;;;;;;73.60;44.13;;;7.70;99.90;;;7.82;82.65;101462.78;4918950;29;20107;-71
2021/03/10 08:24:22;;;;;;;75.83;45.40;;;7.70;99.90;;;7.81;82.69;101473.28;4917974;29;20104;-72
2021/03/10 08:26:53;;;;;;;68.95;42.85;;;7.70;99.90;;;7.79;82.56;101473.28;4936320;29;20044;-72
2021/03/10 08:29:21;;;;;;;70.13;43.33;;;7.60;99.90;;;7.82;82.55;101475.09;4919156;29;20052;-71
2021/03/10 08:31:52;;;;;;;69.63;43.20;;;7.70;99.90;;;7.84;82.52;101481.25;4935983;29;20147;-72
2021/03/10 08:34:32;;;;;;;70.38;42.85;;;7.70;99.90;;;7.91;82.51;101475.22;4935404;29;20098;-72
2021/03/10 08:37:00;;;;;;;70.13;43.10;;;7.70;99.90;;;7.93;82.17;101466.50;4935586;29;20147;-73
2021/03/10 08:39:28;;;;;;;64.38;40.38;;;7.80;99.90;;;7.94;81.97;101475.25;4935929;29;20047;-72
2021/03/10 08:41:57;;;;;;;66.30;40.15;;;7.70;99.90;;;7.92;81.74;101455.91;4935898;29;20055;-72
2021/03/10 08:44:26;;;;;;;60.15;38.83;;;7.80;99.90;;;7.98;81.29;101467.44;4935742;29;20036;-72
2021/03/10 08:46:56;;;;;;;64.07;39.45;;;7.80;99.90;;;7.97;80.78;101464.78;4935496;29;20040;-72
2021/03/10 08:49:28;;;;;;;63.47;38.60;;;7.80;99.90;;;8.05;80.62;101445.59;4935153;29;20063;-72
2021/03/10 08:52:08;;;;;;;66.45;38.97;;;7.90;99.90;;;8.09;80.47;101460.56;4935319;29;20047;-72
2021/03/10 08:54:53;;;;;;;62.67;38.72;;;7.90;99.90;;;8.06;80.46;101450.00;4918576;29;20079;-71
2021/03/10 08:57:24;;;;;;;55.75;35.70;;;7.90;99.90;;;8.02;80.00;101448.19;4934201;29;20058;-72
2021/03/10 08:59:52;;;;;;;61.67;38.08;;;7.90;99.90;;;8.08;79.38;101448.28;4918233;29;20560;-70
2021/03/10 09:02:29;;;;;;;59.78;36.50;;;7.90;99.90;;;8.10;79.59;101443.03;4918379;29;20052;-72
2021/03/10 09:04:59;;;;;;;61.08;37.42;;;7.90;99.90;;;8.21;79.89;101449.31;4918466;29;20051;-72
2021/03/10 09:07:28;;;;;;;59.50;36.40;;;8.00;99.90;;;8.17;79.36;101437.88;4918364;29;20044;-72
2021/03/10 09:09:58;;;;;;;61.65;35.90;;;8.00;99.90;;;8.26;79.27;101441.53;4918285;29;20106;-72
2021/03/10 09:12:29;;;;;;;56.72;36.65;;;8.10;99.90;;;8.25;79.04;101429.22;4918079;29;20056;-72
2021/03/10 09:15:10;;;;;;;59.45;35.08;;;8.10;99.90;;;8.20;78.89;101423.84;4918511;29;20142;-72
2021/03/10 09:17:42;;;;;;;58.72;37.75;;;8.10;99.90;;;8.21;78.48;101447.59;4918164;29;20103;-73
2021/03/10 09:20:24;;;;;;;55.65;34.95;;;8.10;99.90;;;8.23;78.90;101432.69;4935151;29;20055;-72
2021/03/10 09:22:56;;;;;;;56.35;35.60;;;8.10;99.90;;;8.24;78.66;101415.13;4918149;29;20155;-71
2021/03/10 09:25:35;;;;;;;54.92;34.17;;;8.10;99.90;;;8.37;78.14;101429.38;4918121;29;20103;-72
2021/03/10 09:28:09;;;;;;;54.80;34.33;;;8.20;99.90;;;8.31;78.05;101418.75;4917915;29;20059;-72
2021/03/10 09:30:48;;;;;;;51.30;33.80;;;8.20;99.90;;;8.41;77.81;101432.09;4933651;29;20058;-72
2021/03/10 09:33:21;;;;;;;58.58;35.05;;;8.20;99.90;;;8.47;77.95;101453.25;4917697;29;20055;-72
2021/03/10 09:35:56;;;;;;;52.72;34.10;;;8.30;99.90;;;8.49;77.57;101429.56;4920997;29;20059;-71
2021/03/10 09:38:26;;;;;;;54.50;32.67;;;8.30;99.90;;;8.46;77.04;101437.44;4939082;29;20040;-72
2021/03/10 09:40:57;;;;;;;51.17;32.65;;;8.30;99.90;;;8.56;77.44;101428.75;4921979;29;20067;-72
2021/03/10 09:43:28;;;;;;;57.50;34.92;;;8.40;99.90;;;8.61;76.65;101430.59;4921887;29;20051;-70
2021/03/10 09:45:59;;;;;;;49.10;32.42;;;8.40;99.90;;;8.40;76.73;101395.16;4921806;29;20055;-71
2021/03/10 09:48:33;;;;;;;50.35;32.60;;;8.40;99.90;;;8.65;76.83;101432.38;4921600;29;20047;-71
2021/03/10 09:51:05;;;;;;;47.83;32.28;;;8.50;99.90;;;8.55;76.07;101414.72;4921689;29;20142;-72
2021/03/10 09:53:41;;;;;;;44.90;30.73;;;8.40;99.90;;;8.68;76.67;101413.97;4921943;29;20079;-71
2021/03/10 09:56:14;;;;;;;45.78;30.25;;;8.50;99.90;;;8.69;76.09;101428.06;4921507;29;20120;-71
2021/03/10 09:58:48;;;;;;;49.30;31.08;;;8.50;99.90;;;8.74;75.38;101411.41;4921848;29;20521;-71
2021/03/10 10:01:20;;;;;;;46.58;30.70;;;8.50;99.90;;;8.60;74.67;101384.00;4921449;29;20501;-71
2021/03/10 10:03:50;;;;;;;46.40;29.70;;;8.60;99.90;;;8.79;74.60;101393.88;4921461;29;20055;-72
2021/03/10 10:06:20;;;;;;;45.67;29.85;;;8.60;99.90;;;8.78;74.25;101418.50;4921620;29;20047;-71
2021/03/10 10:08:52;;;;;;;43.58;28.98;;;8.60;99.90;;;8.82;73.77;101404.47;4921154;29;20051;-72
2021/03/10 10:11:22;;;;;;;;;;;8.60;99.90;;;8.88;74.10;101403.66;4921788;29;20395;-71
2021/03/10 10:13:51;;;;;;;49.22;29.77;;;8.70;99.90;;;8.84;72.95;101384.28;4921476;29;19962;-72
2021/03/10 10:16:21;;;;;;;42.40;28.50;;;8.70;99.90;;;8.84;73.33;101375.47;4921337;29;20175;-71
2021/03/10 10:18:51;;;;;;;43.35;27.50;;;8.70;99.90;;;8.77;72.50;101385.06;4921094;29;20058;-72
2021/03/10 10:21:21;;;;;;;42.35;27.75;;;8.60;99.90;;;8.90;72.93;101372.91;4921096;29;20139;-71
2021/03/10 10:23:49;;;;;;;43.17;28.75;;;8.70;99.90;;;8.91;71.85;101367.66;4938148;29;20493;-71
2021/03/10 10:26:21;;;;;;;41.40;28.15;;;8.70;99.90;;;8.82;71.92;101367.56;4921207;29;20044;-71